Time;durP1;ratioP1;P1;durP2;ratioP2;P2;SDS_P1;SDS_P2;PMS_P1;PMS_P2;Temp;Humidity;BMP_temperature;BMP_pressure;BME280_temperature;BME280_humidity;BME280_pressure;Samples;Min_cycle;Max_cycle;Signal;HPM_P1;HPM_P2
2021/04/29 00:02:05;;;;;;;1999.90;999.90;;;13.40;99.40;;;;;;5053825;28;20188;-53
2021/04/29 00:04:32;;;;;;;1999.90;999.90;;;13.50;99.90;;;;;;5053630;28;20184;-52
2021/04/29 00:06:59;;;;;;;1999.90;999.90;;;13.50;99.70;;;;;;5053583;28;20664;-55
2021/04/29 00:09:26;;;;;;;1999.90;999.90;;;13.50;99.90;;;;;;5053465;28;20192;-49
2021/04/29 00:11:53;;;;;;;1999.90;999.90;;;13.50;99.90;;;;;;5052722;28;20176;-47
2021/04/29 00:14:20;;;;;;;1999.90;999.90;;;13.40;99.90;;;;;;5053529;28;20169;-56
2021/04/29 00:16:47;;;;;;;1999.90;999.90;;;13.30;99.90;;;;;;5053411;28;20177;-55
2021/04/29 00:19:14;;;;;;;1999.90;999.90;;;13.20;99.90;;;;;;5053376;28;20185;-46
2021/04/29 00:21:41;;;;;;;1999.90;999.90;;;13.10;99.90;;;;;;5053468;28;20207;-47
2021/04/29 00:24:08;;;;;;;1999.90;999.90;;;13.10;99.90;;;;;;5053481;28;20695;-53
2021/04/29 00:26:35;;;;;;;1999.90;999.90;;;13.00;99.90;;;;;;5053331;28;20252;-48
2021/04/29 00:29:02;;;;;;;1999.90;999.90;;;13.10;99.90;;;;;;5053178;28;20176;-54
2021/04/29 00:31:30;;;;;;;1999.90;999.90;;;13.00;99.90;;;;;;5053205;28;20256;-47
2021/04/29 00:33:58;;;;;;;1999.90;999.90;;;13.10;99.90;;;;;;5053179;28;20165;-45
2021/04/29 00:36:25;;;;;;;1999.90;999.90;;;13.00;99.90;;;;;;5053153;28;20627;-52
2021/04/29 00:38:52;;;;;;;1999.90;999.90;;;13.00;99.90;;;;;;5053088;28;20179;-50
2021/04/29 00:41:19;;;;;;;1999.90;999.90;;;13.00;99.90;;;;;;5053331;28;20589;-52
2021/04/29 00:43:46;;;;;;;1999.90;999.90;;;12.80;99.90;;;;;;5053116;28;20169;-47
2021/04/29 00:46:13;;;;;;;1999.90;999.90;;;12.90;99.90;;;;;;5053063;28;20589;-54
2021/04/29 00:48:44;;;;;;;1999.90;999.90;;;12.80;99.90;;;;;;5053271;28;20260;-45
2021/04/29 00:51:11;;;;;;;1999.90;999.90;;;12.70;99.90;;;;;;5052936;28;20228;-53
2021/04/29 00:53:42;;;;;;;1999.90;999.90;;;12.70;99.90;;;;;;5052932;28;20173;-57
2021/04/29 00:56:10;;;;;;;1999.90;999.90;;;12.70;99.90;;;;;;5053024;28;20248;-48
2021/04/29 00:58:38;;;;;;;1999.90;999.90;;;12.70;99.90;;;;;;5052699;28;20217;-47
2021/04/29 01:01:06;;;;;;;1999.90;999.90;;;12.70;99.90;;;;;;5052872;28;20161;-52
2021/04/29 01:03:54;;;;;;;1999.90;999.90;;;12.70;99.90;;;;;;5052783;28;20256;-47
2021/04/29 01:06:34;;;;;;;1999.90;999.90;;;12.70;99.90;;;;;;5052721;28;20259;-51
2021/04/29 01:09:12;;;;;;;1999.90;999.90;;;12.60;99.90;;;;;;5053004;28;20517;-49
2021/04/29 01:11:40;;;;;;;1999.90;999.90;;;12.50;99.90;;;;;;5052752;28;20176;-46
2021/04/29 01:14:10;;;;;;;1999.90;999.90;;;12.40;99.90;;;;;;5052726;28;20167;-45
2021/04/29 01:16:37;;;;;;;1999.90;999.90;;;12.40;99.90;;;;;;5052583;28;20260;-52
2021/04/29 01:19:08;;;;;;;1999.90;999.90;;;12.40;99.90;;;;;;5051437;28;20173;-50
2021/04/29 01:21:36;;;;;;;1999.90;999.90;;;12.50;99.90;;;;;;5053054;28;20162;-57
2021/04/29 01:24:11;;;;;;;1999.90;999.90;;;12.50;99.90;;;;;;5056718;28;20173;-50
2021/04/29 01:27:08;;;;;;;1999.90;999.90;;;12.50;99.90;;;;;;5056650;28;20160;-49
2021/04/29 01:29:37;;;;;;;1999.90;999.90;;;12.50;99.90;;;;;;5048012;28;20219;-48
2021/04/29 01:32:04;;;;;;;1999.90;999.90;;;12.50;99.90;;;;;;5056524;28;20209;-52
2021/04/29 01:34:37;;;;;;;1999.90;999.90;;;12.50;99.90;;;;;;5056541;28;20165;-46
2021/04/29 01:37:05;;;;;;;1999.90;999.90;;;12.50;99.90;;;;;;5056412;28;20169;-52
2021/04/29 01:39:32;;;;;;;1999.90;999.90;;;12.40;99.90;;;;;;5056427;28;20215;-50
2021/04/29 01:42:00;;;;;;;1999.90;999.90;;;12.40;99.90;;;;;;5055192;28;20576;-50
2021/04/29 01:44:27;;;;;;;1999.90;999.90;;;12.40;99.90;;;;;;5056268;28;20252;-56
2021/04/29 01:46:59;;;;;;;1999.90;999.90;;;12.20;99.90;;;;;;5056285;28;20164;-50
2021/04/29 01:49:27;;;;;;;1999.90;999.90;;;12.20;99.90;;;;;;5056265;28;20202;-55
2021/04/29 01:51:54;;;;;;;1999.90;999.90;;;12.20;99.90;;;;;;5056248;28;20244;-48
2021/04/29 01:54:22;;;;;;;1999.90;999.90;;;12.20;99.90;;;;;;5056053;28;20181;-45
2021/04/29 01:56:50;;;;;;;1999.90;999.90;;;12.20;99.90;;;;;;5056116;28;20624;-48
2021/04/29 01:59:18;;;;;;;1999.90;999.90;;;12.30;99.90;;;;;;5055967;28;20213;-58
2021/04/29 02:01:47;;;;;;;1999.90;999.90;;;12.40;99.90;;;;;;5056286;28;20192;-50
2021/04/29 02:04:14;;;;;;;1999.90;999.90;;;12.60;99.90;;;;;;5055921;28;20173;-49
2021/04/29 02:06:42;;;;;;;1999.90;999.90;;;12.50;99.90;;;;;;5055897;28;20268;-58
2021/04/29 02:09:10;;;;;;;1999.90;999.90;;;12.40;99.90;;;;;;5055828;28;20173;-51
2021/04/29 02:11:41;;;;;;;1999.90;999.90;;;12.30;99.90;;;;;;5055844;28;20586;-53
2021/04/29 02:14:10;;;;;;;1999.90;999.90;;;12.30;99.90;;;;;;5055788;28;20165;-49
2021/04/29 02:16:42;;;;;;;1999.90;999.90;;;12.20;99.90;;;;;;5055700;28;20193;-50
2021/04/29 02:19:10;;;;;;;1999.90;999.90;;;12.20;99.90;;;;;;5055784;28;20149;-43
2021/04/29 02:21:43;;;;;;;1999.90;999.90;;;12.20;99.90;;;;;;5055595;28;20549;-43
2021/04/29 02:24:11;;;;;;;1999.90;999.90;;;12.20;99.90;;;;;;5055611;28;20540;-48
2021/04/29 02:26:38;;;;;;;1999.90;999.90;;;12.10;99.90;;;;;;5055526;28;20173;-46
2021/04/29 02:29:06;;;;;;;1999.90;999.90;;;12.10;99.90;;;;;;5055442;28;20254;-47
2021/04/29 02:31:36;;;;;;;1999.90;999.90;;;12.00;99.90;;;;;;5055409;28;20180;-49
2021/04/29 02:34:04;;;;;;;1999.90;999.90;;;12.00;99.90;;;;;;5054512;28;20157;-53
2021/04/29 02:36:33;;;;;;;1999.90;999.90;;;11.90;99.90;;;;;;5055401;28;20200;-50
2021/04/29 02:39:01;;;;;;;1999.90;999.90;;;11.80;99.90;;;;;;5055189;28;20199;-52
2021/04/29 02:41:28;;;;;;;1999.90;999.90;;;11.70;99.90;;;;;;5055150;28;20169;-47
2021/04/29 02:43:56;;;;;;;1999.90;999.90;;;11.70;99.90;;;;;;5055097;28;20188;-47
2021/04/29 02:46:25;;;;;;;1999.90;999.90;;;11.60;99.90;;;;;;5055006;28;20173;-42
2021/04/29 02:48:51;;;;;;;1999.90;999.90;;;11.60;99.90;;;;;;5055124;28;20532;-49
2021/04/29 02:51:19;;;;;;;1999.90;999.90;;;11.60;99.90;;;;;;5054929;28;20610;-42
2021/04/29 02:53:47;;;;;;;1999.90;999.90;;;11.70;99.90;;;;;;5054931;28;20165;-47
2021/04/29 02:56:14;;;;;;;1999.90;999.90;;;11.70;99.90;;;;;;5054888;28;20200;-44
2021/04/29 02:58:49;;;;;;;1999.90;999.90;;;11.60;99.90;;;;;;5054720;28;20607;-47
2021/04/29 03:01:16;;;;;;;1999.90;999.90;;;11.60;99.90;;;;;;5054675;28;20204;-49
2021/04/29 03:03:44;;;;;;;1999.90;999.90;;;11.70;99.90;;;;;;5054712;28;20196;-45
2021/04/29 03:06:11;;;;;;;1999.90;999.90;;;11.70;99.90;;;;;;5054692;28;20195;-51
2021/04/29 03:08:38;;;;;;;1999.90;999.90;;;11.60;99.90;;;;;;5054557;28;20183;-42
2021/04/29 03:11:06;;;;;;;1999.90;999.90;;;11.60;99.90;;;;;;5054541;28;20296;-47
2021/04/29 03:13:32;;;;;;;1999.90;999.90;;;11.60;99.90;;;;;;5054473;28;20192;-44
2021/04/29 03:16:00;;;;;;;1999.90;999.90;;;11.60;99.90;;;;;;5054494;28;20260;-42
2021/04/29 03:18:26;;;;;;;1999.90;999.90;;;11.60;99.90;;;;;;5054394;28;20173;-47
2021/04/29 03:20:53;;;;;;;1999.90;999.90;;;11.60;99.90;;;;;;5054491;28;20196;-43
2021/04/29 03:23:20;;;;;;;1999.90;999.90;;;11.70;99.90;;;;;;5053409;28;20555;-47
2021/04/29 03:25:47;;;;;;;1999.90;999.90;;;11.70;99.90;;;;;;5054335;28;20200;-48
2021/04/29 03:28:14;;;;;;;1999.90;999.90;;;11.70;99.90;;;;;;5054385;28;20194;-49
2021/04/29 03:30:41;;;;;;;1999.90;999.90;;;11.60;99.90;;;;;;5054209;28;20346;-45
2021/04/29 03:33:08;;;;;;;1999.90;999.90;;;11.60;99.90;;;;;;5054300;28;20165;-47
2021/04/29 03:35:35;;;;;;;1999.90;999.90;;;11.60;99.90;;;;;;5054185;28;20545;-45
2021/04/29 03:38:03;;;;;;;1999.90;999.90;;;11.50;99.90;;;;;;5054188;28;20648;-42
2021/04/29 03:40:30;;;;;;;1999.90;999.90;;;11.50;99.90;;;;;;5054180;28;20529;-49
2021/04/29 03:42:57;;;;;;;1999.90;999.90;;;11.40;99.90;;;;;;5054255;28;20166;-45
2021/04/29 03:45:24;;;;;;;1999.90;999.90;;;11.40;99.90;;;;;;5054232;28;20165;-49
2021/04/29 03:47:51;;;;;;;1999.90;999.90;;;11.40;99.90;;;;;;5054012;28;20173;-49
2021/04/29 03:50:19;;;;;;;1999.90;999.90;;;11.40;99.90;;;;;;5053897;28;20267;-50
2021/04/29 03:52:46;;;;;;;1999.90;999.90;;;11.40;99.90;;;;;;5053960;28;20223;-47
2021/04/29 03:55:13;;;;;;;1999.90;999.90;;;11.50;99.90;;;;;;5053812;28;20183;-46
2021/04/29 03:57:40;;;;;;;1999.90;999.90;;;11.60;99.90;;;;;;5053787;28;20174;-45
2021/04/29 04:00:08;;;;;;;1999.90;999.90;;;11.60;99.90;;;;;;5053679;28;20216;-47
2021/04/29 04:02:36;;;;;;;1999.90;999.90;;;11.60;99.90;;;;;;5053694;28;20260;-52
2021/04/29 04:05:05;;;;;;;1999.90;999.90;;;11.40;99.90;;;;;;5053665;28;20268;-56
2021/04/29 04:07:32;;;;;;;1999.90;999.90;;;11.40;99.90;;;;;;5053538;28;20518;-51
2021/04/29 04:09:58;;;;;;;1999.90;999.90;;;11.40;99.90;;;;;;5053452;28;20251;-51
2021/04/29 04:12:26;;;;;;;1999.90;999.90;;;11.30;99.90;;;;;;5053488;28;20527;-46
2021/04/29 04:14:53;;;;;;;1999.90;999.90;;;11.30;99.90;;;;;;5053311;28;20173;-49
2021/04/29 04:17:20;;;;;;;1999.90;999.90;;;11.40;99.90;;;;;;5053266;28;20213;-46
2021/04/29 04:19:47;;;;;;;1999.90;999.90;;;11.40;99.90;;;;;;5053189;28;20169;-55
2021/04/29 04:22:14;;;;;;;1999.90;999.90;;;11.30;99.90;;;;;;5053211;28;20172;-51
2021/04/29 04:24:40;;;;;;;1999.90;999.90;;;11.20;99.90;;;;;;5053029;28;20177;-46
2021/04/29 04:27:07;;;;;;;1999.90;999.90;;;11.10;99.90;;;;;;5053118;28;20256;-51
2021/04/29 04:29:35;;;;;;;1999.90;999.90;;;11.00;99.90;;;;;;5053325;28;20658;-46
2021/04/29 04:32:02;;;;;;;1999.90;999.90;;;10.90;99.90;;;;;;5053008;28;20178;-46
2021/04/29 04:34:29;;;;;;;1999.90;999.90;;;10.80;99.90;;;;;;5053037;28;20181;-52
2021/04/29 04:36:56;;;;;;;1999.90;999.90;;;10.80;99.90;;;;;;5052952;28;20161;-54
2021/04/29 04:39:23;;;;;;;1999.90;999.90;;;10.90;99.90;;;;;;5052923;28;20170;-51
2021/04/29 04:41:51;;;;;;;1999.90;999.90;;;10.80;99.90;;;;;;5052882;28;20264;-49
2021/04/29 04:44:18;;;;;;;1999.90;999.90;;;10.80;99.90;;;;;;5053088;28;20771;-47
2021/04/29 04:46:45;;;;;;;1999.90;999.90;;;10.80;99.90;;;;;;5052821;28;20640;-50
2021/04/29 04:49:12;;;;;;;1999.90;999.90;;;10.90;99.90;;;;;;5052736;28;20166;-53
2021/04/29 04:51:39;;;;;;;1999.90;999.90;;;11.00;99.90;;;;;;5052818;28;20204;-48
2021/04/29 04:54:06;;;;;;;1999.90;999.90;;;11.10;99.90;;;;;;5052637;28;20216;-48
2021/04/29 04:56:33;;;;;;;1999.90;999.90;;;11.10;99.90;;;;;;5052305;28;20215;-51
2021/04/29 04:59:00;;;;;;;1999.90;999.90;;;11.10;99.90;;;;;;5052387;28;20251;-51
2021/04/29 05:01:28;;;;;;;1999.90;999.90;;;11.10;99.90;;;;;;5052594;28;20177;-50
2021/04/29 05:03:55;;;;;;;1999.90;999.90;;;11.10;99.90;;;;;;5052739;28;20176;-48
2021/04/29 05:06:22;;;;;;;1999.90;999.90;;;11.20;99.90;;;;;;5052662;28;20207;-45
2021/04/29 05:08:49;;;;;;;1999.90;999.90;;;11.20;99.90;;;;;;5051469;28;20172;-45
2021/04/29 05:11:16;;;;;;;1999.90;999.90;;;11.10;99.90;;;;;;5052668;28;20189;-44
2021/04/29 05:13:43;;;;;;;1999.90;999.90;;;11.20;99.90;;;;;;5052564;28;20158;-47
2021/04/29 05:16:10;;;;;;;1999.90;999.90;;;11.20;99.90;;;;;;5052408;28;20556;-48
2021/04/29 05:18:37;;;;;;;1999.90;999.90;;;11.20;99.90;;;;;;5052331;28;20172;-44
2021/04/29 05:21:04;;;;;;;1999.90;999.90;;;11.20;99.90;;;;;;5052510;28;20162;-49
2021/04/29 05:23:31;;;;;;;1999.90;999.90;;;11.20;99.90;;;;;;5052430;28;20696;-48
2021/04/29 05:25:57;;;;;;;1999.90;999.90;;;11.20;99.90;;;;;;5052370;28;20200;-44
2021/04/29 05:28:24;;;;;;;1999.90;999.90;;;11.20;99.90;;;;;;5052410;28;20570;-55
2021/04/29 05:30:51;;;;;;;1999.90;999.90;;;11.20;99.90;;;;;;5052169;28;20197;-55
2021/04/29 05:33:18;;;;;;;1999.90;999.90;;;11.20;99.90;;;;;;5052365;28;20201;-48
2021/04/29 05:35:45;;;;;;;1999.90;999.90;;;11.20;99.90;;;;;;5052307;28;20746;-46
2021/04/29 05:38:11;;;;;;;1999.90;999.90;;;11.20;99.90;;;;;;5052283;28;20334;-45
2021/04/29 05:40:39;;;;;;;1999.90;999.90;;;11.20;99.90;;;;;;5051753;28;20165;-46
2021/04/29 05:43:06;;;;;;;1999.90;999.90;;;11.20;99.90;;;;;;5051912;28;20239;-42
2021/04/29 05:45:33;;;;;;;1999.90;999.90;;;11.30;99.90;;;;;;5052062;28;20177;-43
2021/04/29 05:48:00;;;;;;;1999.90;999.90;;;11.50;99.90;;;;;;5051982;28;20259;-49
2021/04/29 05:50:27;;;;;;;1999.90;999.90;;;11.60;99.90;;;;;;5050539;28;20631;-46
2021/04/29 05:52:54;;;;;;;1999.90;999.90;;;11.90;99.90;;;;;;5051919;28;20166;-48
2021/04/29 05:55:21;;;;;;;1999.90;999.90;;;12.00;99.90;;;;;;5051671;28;20211;-50
2021/04/29 05:57:47;;;;;;;1999.90;999.90;;;12.10;99.90;;;;;;5052166;28;20176;-53
2021/04/29 06:00:15;;;;;;;1999.90;999.90;;;12.10;99.90;;;;;;5051643;28;20675;-46
2021/04/29 06:02:42;;;;;;;1999.90;999.90;;;12.30;99.90;;;;;;5051406;28;20197;-45
2021/04/29 06:05:09;;;;;;;1999.90;999.90;;;12.40;99.90;;;;;;5051430;28;20208;-44
2021/04/29 06:07:35;;;;;;;1999.90;999.90;;;12.70;99.90;;;;;;5051451;28;20166;-44
2021/04/29 06:10:02;;;;;;;1999.90;999.90;;;12.80;99.90;;;;;;5051387;28;20296;-44
2021/04/29 06:12:34;;;;;;;1999.90;999.90;;;12.90;99.90;;;;;;5051844;28;20195;-44
2021/04/29 06:15:01;;;;;;;1999.90;999.90;;;13.10;99.90;;;;;;5053209;28;20195;-49
2021/04/29 06:17:28;;;;;;;1999.90;999.90;;;13.40;99.90;;;;;;5054408;28;20169;-54
2021/04/29 06:19:55;;;;;;;1999.90;999.90;;;13.70;99.90;;;;;;5053128;28;20181;-56
2021/04/29 06:22:21;;;;;;;1999.90;999.90;;;14.10;99.50;;;;;;5053782;28;20549;-55
2021/04/29 06:24:57;;;;;;;1999.90;999.90;;;14.30;98.50;;;;;;5053931;28;20181;-45
2021/04/29 06:27:24;;;;;;;1999.90;999.90;;;14.50;98.60;;;;;;5043181;28;20165;-51
2021/04/29 06:29:51;;;;;;;1999.90;999.90;;;14.70;99.40;;;;;;5053474;28;20710;-46
2021/04/29 06:32:18;;;;;;;1999.90;999.90;;;14.90;99.10;;;;;;5053773;28;20180;-43
2021/04/29 06:34:45;;;;;;;1999.90;999.90;;;15.10;98.90;;;;;;5042236;28;20181;-56
2021/04/29 06:37:12;;;;;;;1999.90;999.90;;;15.30;98.60;;;;;;5053625;28;20169;-52
2021/04/29 06:39:40;;;;;;;1999.90;999.90;;;15.30;97.60;;;;;;5054123;28;20535;-39
2021/04/29 06:42:06;;;;;;;1999.90;999.90;;;15.30;96.50;;;;;;5053599;28;20173;-44
2021/04/29 06:44:33;;;;;;;1999.90;999.90;;;15.40;96.30;;;;;;5053903;28;20244;-53
2021/04/29 06:47:00;;;;;;;1999.90;999.90;;;15.50;95.50;;;;;;5052535;28;20187;-49
2021/04/29 06:49:29;;;;;;;1999.90;999.90;;;15.60;96.00;;;;;;5053381;28;20212;-42
2021/04/29 06:51:56;;;;;;;1999.90;999.90;;;15.80;95.60;;;;;;5053767;28;21375;-45
2021/04/29 06:54:23;;;;;;;1999.90;999.90;;;16.00;94.70;;;;;;5054281;28;20247;-41
2021/04/29 06:56:50;;;;;;;1999.90;999.90;;;16.30;93.00;;;;;;5052904;28;20164;-53
2021/04/29 06:59:16;;;;;;;1999.90;999.90;;;16.70;91.80;;;;;;5054150;28;20220;-51
2021/04/29 07:01:43;;;;;;;1999.90;999.90;;;16.90;91.00;;;;;;5054342;28;20165;-40
2021/04/29 07:04:10;;;;;;;1999.90;999.90;;;17.00;90.60;;;;;;5052758;28;20173;-46
2021/04/29 07:06:37;;;;;;;1999.90;999.90;;;16.90;90.60;;;;;;5054100;28;20188;-44
2021/04/29 07:09:04;;;;;;;1999.90;999.90;;;16.90;90.60;;;;;;5054170;28;20165;-59
2021/04/29 07:11:32;;;;;;;1999.90;999.90;;;17.00;90.30;;;;;;5051512;28;20438;-59
2021/04/29 07:13:59;;;;;;;1999.90;999.90;;;17.20;90.00;;;;;;5053663;28;20173;-53
2021/04/29 07:16:26;;;;;;;1999.90;999.90;;;17.30;89.70;;;;;;5053623;28;20199;-55
2021/04/29 07:18:53;;;;;;;1999.90;999.90;;;17.50;89.80;;;;;;5052625;28;20177;-48
2021/04/29 07:21:20;;;;;;;1999.90;999.90;;;17.60;86.30;;;;;;5052692;28;20261;-54
2021/04/29 07:23:47;;;;;;;1999.90;999.90;;;17.80;84.70;;;;;;5053660;28;20220;-59
2021/04/29 07:26:16;;;;;;;1999.90;999.90;;;17.90;84.50;;;;;;5052866;28;20181;-52
2021/04/29 07:28:43;;;;;;;1999.90;999.90;;;17.80;84.80;;;;;;5053093;28;20178;-52
2021/04/29 07:31:11;;;;;;;1999.90;999.90;;;17.80;82.90;;;;;;5053502;28;20205;-40
2021/04/29 07:33:38;;;;;;;1999.90;999.90;;;17.80;83.60;;;;;;5052993;28;20260;-46
2021/04/29 07:36:05;;;;;;;1999.90;999.90;;;17.90;84.00;;;;;;5053618;28;20165;-56
2021/04/29 07:38:32;;;;;;;1999.90;999.90;;;17.90;82.80;;;;;;5051615;28;20628;-38
2021/04/29 07:40:59;;;;;;;1999.90;999.90;;;18.00;83.10;;;;;;5052788;28;20177;-45
2021/04/29 07:43:26;;;;;;;1999.90;999.90;;;18.10;82.20;;;;;;5053205;28;20176;-44
2021/04/29 07:45:53;;;;;;;1999.90;999.90;;;18.30;80.90;;;;;;5052731;28;20158;-53
2021/04/29 07:48:19;;;;;;;1999.90;999.90;;;18.40;79.90;;;;;;5052995;28;20169;-49
2021/04/29 07:50:46;;;;;;;1999.90;999.90;;;18.50;80.90;;;;;;5052545;28;20208;-46
2021/04/29 07:53:13;;;;;;;1999.90;999.90;;;18.60;80.00;;;;;;5052499;28;20172;-46
2021/04/29 07:55:40;;;;;;;1999.90;999.90;;;18.60;80.80;;;;;;5052688;28;20231;-45
2021/04/29 07:58:06;;;;;;;1999.90;999.90;;;18.60;80.40;;;;;;5052124;28;20275;-48
2021/04/29 08:00:33;;;;;;;1999.90;999.90;;;18.60;80.50;;;;;;5052308;28;20159;-48
2021/04/29 08:03:00;;;;;;;1999.90;999.90;;;18.70;78.80;;;;;;5052908;28;20303;-44
2021/04/29 08:05:27;;;;;;;1999.90;999.90;;;18.80;79.70;;;;;;5052449;28;20184;-44
2021/04/29 08:07:54;;;;;;;1999.90;999.90;;;18.90;78.80;;;;;;5051033;28;20173;-43
2021/04/29 08:10:20;;;;;;;1999.90;999.90;;;18.90;77.80;;;;;;5052052;28;20205;-48
2021/04/29 08:12:47;;;;;;;1999.90;999.90;;;18.70;78.10;;;;;;5053092;28;20169;-43
2021/04/29 08:15:14;;;;;;;1999.90;999.90;;;18.60;80.70;;;;;;5051949;28;20177;-54
2021/04/29 08:17:41;;;;;;;1999.90;999.90;;;18.50;82.30;;;;;;5052044;28;20176;-46
2021/04/29 08:20:08;;;;;;;1999.90;999.90;;;18.60;81.90;;;;;;5052681;28;20570;-55
2021/04/29 08:22:35;;;;;;;1999.90;999.90;;;18.60;81.80;;;;;;5051795;28;20216;-47
2021/04/29 08:25:02;;;;;;;1999.90;999.90;;;18.60;81.80;;;;;;5052448;28;20639;-53
2021/04/29 08:27:29;;;;;;;1999.90;999.90;;;18.50;82.20;;;;;;5052237;28;20181;-43
2021/04/29 08:29:56;;;;;;;1999.90;999.90;;;18.50;83.40;;;;;;5051478;28;20235;-44
2021/04/29 08:32:23;;;;;;;1999.90;999.90;;;18.40;83.70;;;;;;5051980;28;20604;-47
2021/04/29 08:34:50;;;;;;;1999.90;999.90;;;18.50;83.90;;;;;;5052071;28;20195;-46
2021/04/29 08:37:17;;;;;;;1999.90;999.90;;;18.40;85.10;;;;;;5051699;28;20172;-49
2021/04/29 08:39:45;;;;;;;1999.90;999.90;;;18.30;86.70;;;;;;5052309;28;20231;-53
2021/04/29 08:42:16;;;;;;;1999.90;999.90;;;18.40;86.30;;;;;;5052464;28;20173;-53
2021/04/29 08:44:44;;;;;;;1999.90;999.90;;;18.70;86.00;;;;;;5051321;28;20574;-52
2021/04/29 08:47:10;;;;;;;1999.90;999.90;;;18.60;87.20;;;;;;5050381;28;20546;-45
2021/04/29 08:49:40;;;;;;;1999.90;999.90;;;18.80;85.00;;;;;;5051408;28;20193;-43
2021/04/29 08:52:09;;;;;;;1999.90;999.90;;;18.80;82.00;;;;;;5050975;28;20185;-50
2021/04/29 08:54:38;;;;;;;1999.90;999.90;;;18.70;83.60;;;;;;5052183;28;20173;-50
2021/04/29 08:57:08;;;;;;;1999.90;999.90;;;18.70;83.20;;;;;;5051730;28;20170;-54
2021/04/29 08:59:35;;;;;;;1999.90;999.90;;;18.70;82.60;;;;;;5051257;28;20213;-52
2021/04/29 09:02:02;;;;;;;1999.90;999.90;;;18.60;83.40;;;;;;5051492;28;20205;-45
2021/04/29 09:04:42;;;;;;;1999.90;999.90;;;18.70;83.60;;;;;;5050950;28;20382;-54
2021/04/29 09:07:18;;;;;;;1999.90;999.90;;;18.80;83.00;;;;;;5051280;28;20180;-54
2021/04/29 09:09:46;;;;;;;1999.90;999.90;;;18.80;83.20;;;;;;5051679;28;20208;-51
2021/04/29 09:12:13;;;;;;;1999.90;999.90;;;18.70;81.70;;;;;;5050962;28;20173;-50
2021/04/29 09:14:42;;;;;;;1999.90;999.90;;;18.70;83.00;;;;;;5051771;28;20264;-46
2021/04/29 09:17:13;;;;;;;1999.90;999.90;;;18.70;82.80;;;;;;5052065;28;20176;-54
2021/04/29 09:19:50;;;;;;;1999.90;999.90;;;18.60;82.10;;;;;;5051489;28;20677;-54
2021/04/29 09:22:19;;;;;;;1999.90;999.90;;;18.70;81.80;;;;;;5051747;28;20172;-55
2021/04/29 09:24:46;;;;;;;1999.90;999.90;;;18.70;82.00;;;;;;5051612;28;20170;-55
2021/04/29 09:27:18;;;;;;;1999.90;999.90;;;18.80;82.30;;;;;;5050647;28;20170;-47
2021/04/29 09:30:04;;;;;;;1999.90;999.90;;;18.80;81.40;;;;;;5051427;28;20258;-46
2021/04/29 09:32:32;;;;;;;1999.90;999.90;;;18.60;81.80;;;;;;5051193;28;20690;-49
2021/04/29 09:35:00;;;;;;;1999.90;999.90;;;18.60;82.20;;;;;;5049776;28;20620;-50
2021/04/29 09:37:33;;;;;;;1999.90;999.90;;;18.70;82.40;;;;;;5051843;28;20172;-52
2021/04/29 09:40:33;;;;;;;1999.90;999.90;;;18.70;82.00;;;;;;5050772;28;20177;-49
2021/04/29 09:43:01;;;;;;;1999.90;999.90;;;18.70;82.00;;;;;;5051199;28;20189;-49
2021/04/29 09:45:34;;;;;;;1999.90;999.90;;;18.70;82.90;;;;;;5055269;28;20272;-55
2021/04/29 09:48:05;;;;;;;1999.90;999.90;;;19.00;81.10;;;;;;5054612;28;20168;-47
2021/04/29 09:50:34;;;;;;;1999.90;999.90;;;18.90;81.10;;;;;;5055002;28;20295;-54
2021/04/29 09:53:04;;;;;;;1999.90;999.90;;;18.80;80.60;;;;;;5055831;28;20207;-57
2021/04/29 09:55:33;;;;;;;1999.90;999.90;;;18.80;81.50;;;;;;5054753;28;21050;-52
2021/04/29 09:58:12;;;;;;;1999.90;999.90;;;18.80;81.50;;;;;;5054349;28;20272;-47
2021/04/29 10:00:48;;;;;;;1999.90;999.90;;;19.30;80.20;;;;;;5039142;28;20200;-56
2021/04/29 10:03:19;;;;;;;1999.90;999.90;;;19.80;77.10;;;;;;5048746;28;20165;-47
2021/04/29 10:05:52;;;;;;;1999.90;999.90;;;19.90;75.90;;;;;;5054300;28;20160;-56
2021/04/29 10:08:25;;;;;;;1999.90;999.90;;;19.80;76.60;;;;;;5055219;28;20205;-59
2021/04/29 10:10:55;;;;;;;1999.90;999.90;;;19.80;75.80;;;;;;5053759;28;20231;-52
2021/04/29 10:13:30;;;;;;;1999.90;999.90;;;19.80;75.30;;;;;;5054995;28;20161;-59
2021/04/29 10:15:57;;;;;;;1999.90;999.90;;;19.80;76.80;;;;;;5054584;28;20183;-51
2021/04/29 10:18:25;;;;;;;1999.90;999.90;;;20.10;75.70;;;;;;5054992;28;20161;-51
2021/04/29 10:20:53;;;;;;;1999.90;999.90;;;20.50;74.20;;;;;;5054953;28;20631;-51
2021/04/29 10:23:21;;;;;;;1999.90;999.90;;;20.70;73.30;;;;;;5054553;28;20175;-55
2021/04/29 10:25:57;;;;;;;1999.90;999.90;;;20.50;74.80;;;;;;5054820;28;20252;-53
2021/04/29 10:28:45;;;;;;;1999.90;999.90;;;20.50;74.50;;;;;;5054006;28;20191;-53
2021/04/29 10:31:21;;;;;;;1999.90;999.90;;;20.20;73.90;;;;;;5054349;28;20255;-58
2021/04/29 10:34:00;;;;;;;1999.90;999.90;;;20.30;74.50;;;;;;5054913;28;20169;-46
2021/04/29 10:36:40;;;;;;;1999.90;999.90;;;20.60;73.50;;;;;;5052825;28;20200;-48
2021/04/29 10:39:20;;;;;;;1999.90;999.90;;;20.50;74.10;;;;;;5053584;28;20230;-48
2021/04/29 10:42:18;;;;;;;1999.90;999.90;;;20.50;72.70;;;;;;5042830;28;20248;-46
2021/04/29 10:44:52;;;;;;;1999.90;999.90;;;20.60;72.20;;;;;;5052310;28;20664;-45
2021/04/29 10:47:27;;;;;;;1999.90;999.90;;;20.30;72.40;;;;;;5053861;28;20183;-45
2021/04/29 10:50:09;;;;;;;1999.90;999.90;;;20.30;72.10;;;;;;5053124;28;20211;-52
2021/04/29 10:53:02;;;;;;;1999.90;999.90;;;20.00;74.50;;;;;;5053640;28;20215;-47
2021/04/29 10:55:43;;;;;;;1999.90;999.90;;;19.60;75.90;;;;;;5053148;28;20153;-40
2021/04/29 10:58:22;;;;;;;1999.90;999.90;;;19.30;77.60;;;;;;5052407;28;20169;-44
2021/04/29 11:01:05;;;;;;;1999.90;999.90;;;19.50;77.70;;;;;;5051805;28;20188;-48
2021/04/29 11:03:36;;;;;;;1999.90;999.90;;;19.30;79.30;;;;;;5034786;28;20194;-44
2021/04/29 11:06:15;;;;;;;1999.90;999.90;;;19.20;79.60;;;;;;5053849;28;20208;-58
2021/04/29 11:08:49;;;;;;;1999.90;999.90;;;19.20;79.10;;;;;;5054103;28;20510;-50
2021/04/29 11:11:28;;;;;;;1999.90;999.90;;;19.50;78.60;;;;;;5054254;28;20251;-45
2021/04/29 11:14:01;;;;;;;1999.90;999.90;;;19.60;77.10;;;;;;5052062;28;20239;-49
2021/04/29 11:16:29;;;;;;;1999.90;999.90;;;19.50;77.10;;;;;;5052912;28;20179;-47
2021/04/29 11:18:56;;;;;;;1999.90;999.90;;;19.60;76.40;;;;;;5053567;28;20185;-43
2021/04/29 11:21:29;;;;;;;1999.90;999.90;;;19.80;75.30;;;;;;5052731;28;20165;-51
2021/04/29 11:23:57;;;;;;;1999.90;999.90;;;19.90;73.90;;;;;;5053087;28;20169;-42
2021/04/29 11:26:24;;;;;;;1999.90;999.90;;;19.80;73.20;;;;;;5051837;28;20178;-54
2021/04/29 11:28:55;;;;;;;1999.90;999.90;;;19.80;73.20;;;;;;5052486;28;20624;-57
2021/04/29 11:31:22;;;;;;;1999.90;999.90;;;19.70;73.00;;;;;;5053433;28;20659;-60
2021/04/29 11:33:49;;;;;;;1999.90;999.90;;;19.60;73.30;;;;;;5052150;28;20176;-60
2021/04/29 11:36:21;;;;;;;1999.90;999.90;;;19.60;73.70;;;;;;5052027;28;20231;-58
2021/04/29 11:38:56;;;;;;;1999.90;999.90;;;19.50;74.50;;;;;;5052824;28;20236;-58
2021/04/29 11:41:25;;;;;;;1999.90;999.90;;;19.40;73.60;;;;;;5052223;28;20248;-57
2021/04/29 11:44:03;;;;;;;1999.90;999.90;;;19.30;74.40;;;;;;5032994;28;20181;-58
2021/04/29 11:46:31;;;;;;;1999.90;999.90;;;19.60;74.40;;;;;;5033463;28;20165;-49
2021/04/29 11:49:03;;;;;;;1999.90;999.90;;;19.50;74.00;;;;;;5038359;28;20169;-48
2021/04/29 11:51:32;;;;;;;1999.90;999.90;;;19.40;75.10;;;;;;5051823;28;20201;-53
2021/04/29 11:54:05;;;;;;;1999.90;999.90;;;19.30;76.00;;;;;;5051462;28;20607;-60
2021/04/29 11:56:43;;;;;;;1999.90;999.90;;;19.50;74.90;;;;;;5050779;28;20230;-46
2021/04/29 11:59:12;;;;;;;1999.90;999.90;;;19.60;74.20;;;;;;5051478;28;20304;-52
2021/04/29 12:01:40;;;;;;;1999.90;999.90;;;19.60;73.60;;;;;;5050713;28;20209;-56
2021/04/29 12:04:22;;;;;;;1999.90;999.90;;;19.80;74.10;;;;;;5050489;28;20185;-54
2021/04/29 12:06:50;;;;;;;1999.90;999.90;;;19.60;72.60;;;;;;5050534;28;20207;-57
2021/04/29 12:09:19;;;;;;;1999.90;999.90;;;19.60;72.60;;;;;;5052899;28;20219;-56